Terminal Aerodrome Forecast
Issued by NWS

Home | Current Version | Previous Version | Text Only | Print | Product List | Glossary On
Versions: 1 2 3 4 5 6 7 8 9 10 11 12 13 14 15 16 17 18 19 20 21 22
000
FTUS46 KLOX 252300
TAFSBP
TAF
KSBP 252332Z 2600/2624 30009KT P6SM SCT250
     FM260300 VRB03KT P6SM SKC
     FM260800 VRB03KT P6SM OVC008
     FM261200 VRB03KT 3SM BR OVC004
     FM261600 VRB03KT P6SM SCT008
     FM261900 29010KT P6SM SCT250=

USA.gov is the U.S. government's official web portal to all federal, state and local government web resources and services.